This is the latest recevied weather packets stored in our database for station/object WC4PEM-9. If no packets are shown the sender has not sent any weather packets the latest 10 day(s).
| Time | Temp. | Humidity | Pressure | Rain* | Wind** | Luminosity | Snow |
|---|---|---|---|---|---|---|---|
| 1777152240 | 20° C | 89% | 1011 hPa | 4.32 mm | - | - | - |
| 1777151940 | 21.11° C | 86% | 1010.8 hPa | 2.29 mm | - | - | - |
| 1777151640 | 23.33° C | 80% | 1010.4 hPa | 0.76 mm | - | - | - |
| 1777151340 | 25.56° C | 74% | 1009.7 hPa | 0.25 mm | - | - | - |
| 1777151040 | 26.11° C | 67% | 1009.4 hPa | 0 mm | - | - | - |
| 1777150740 | 27.22° C | 62% | 1009.1 hPa | 0 mm | - | - | - |
| 1777150440 | 27.78° C | 55% | 1009.2 hPa | 0 mm | - | - | - |
| 1777150140 | 28.33° C | 52% | 1009.3 hPa | 0 mm | - | - | - |
| 1777149840 | 28.89° C | 51% | 1009 hPa | 0 mm | - | - | - |
| 1777149540 | 28.89° C | 51% | 1008.9 hPa | 0 mm | - | - | - |
| 1777149240 | 29.44° C | 50% | 1008.9 hPa | 0 mm | - | - | - |
| 1777148940 | 30° C | 48% | 1009 hPa | 0 mm | - | - | - |
| 1777148640 | 30° C | 47% | 1008.9 hPa | 0 mm | - | - | - |
| 1777148340 | 30° C | 47% | 1009 hPa | 0 mm | - | - | - |
| 1777148040 | 30° C | 48% | 1008.9 hPa | 0 mm | - | - | - |
| 1777147740 | 30° C | 51% | 1009 hPa | 0 mm | - | - | - |
| 1777147440 | 30° C | 47% | 1009 hPa | 0 mm | - | - | - |
| 1777147140 | 30° C | 46% | 1009.3 hPa | 0 mm | - | - | - |
| 1777146840 | 30.56° C | 46% | 1009.4 hPa | 0 mm | - | - | - |
| 1777146540 | 31.11° C | 45% | 1009.4 hPa | 0 mm | - | - | - |
| 1777146240 | 31.11° C | 47% | 1009.4 hPa | 0 mm | - | - | - |
| 1777145940 | 30.56° C | 47% | 1009.5 hPa | 0 mm | - | - | - |
| 1777145640 | 30.56° C | 49% | 1009.5 hPa | 0 mm | - | - | - |
| 1777145340 | 30° C | 46% | 1009.7 hPa | 0 mm | - | - | - |
* Rain latest hour (hover to see other rain measurements)
** Current wind speed in m/s (hover to see current wind gust speed)